^^
Station Historical Data
Daily Summary for January 29, 2017 Units:  Metric    English   Both
« Previous Day
Next Day »
Daily Weekly Monthly Yearly Custom
  High: Low: Average:
Temperature: 34.2 °C 17.9 °C 23.2 °C
Dew Point: 8.7 °C 5.8 °C 7.8 °C
Humidity: 54% 18% 39%
Wind Speed: 38.5km/h 0km/h 10.8km/h
Wind Gust: 45.1km/h - -
Wind- - South
Pressure: 1009.7 hPa 1004.6 hPa -
Precipitation: 0 mm    
Historical Graphs
 
 
Tabular Data for January 29, 2017
Time Temperature Dew Point Pressure Wind Wind Speed Wind Gust Humidity Rainfall Rate (Hourly) solar Conditions
01:19 22.1 °C 7.5 °C 1008.7 hPa SE 7.9 km/h 9.7 km/h 39% 0 mm 0.0 W/m2
01:30 21.8 °C 7.6 °C 1008.7 hPa SE 6.4 km/h 11.3 km/h 40% 0 mm 0.0 W/m2
01:35 21.7 °C 7.9 °C 1008.7 hPa SE 7.9 km/h 8 km/h 41% 0 mm 0.0 W/m2
01:40 21.6 °C 7.8 °C 1008.7 hPa SE 6.4 km/h 8 km/h 41% 0 mm 0.0 W/m2
01:46 21.4 °C 8 °C 1008.7 hPa SE 6.4 km/h 6.4 km/h 42% 0 mm 0.0 W/m2
01:57 21.2 °C 7.8 °C 1008.4 hPa SE 6.4 km/h 8 km/h 42% 0 mm 0.0 W/m2
02:05 21 °C 7.9 °C 1008.4 hPa SE 6.4 km/h 8 km/h 43% 0 mm 0.0 W/m2
02:10 20.9 °C 8.2 °C 1008 hPa SE 6.4 km/h 8 km/h 44% 0 mm 0.0 W/m2
02:15 20.8 °C 8.4 °C 1008 hPa SE 6.4 km/h 8 km/h 45% 0 mm 0.0 W/m2
02:25 20.5 °C 8.5 °C 1008 hPa SE 6.4 km/h 6.4 km/h 46% 0 mm 0.0 W/m2
02:30 20.4 °C 8.4 °C 1008 hPa Calm     46% 0 mm 0.0 W/m2
02:36 20.6 °C 8.2 °C 1007.7 hPa Calm     45% 0 mm 0.0 W/m2
02:41 20.6 °C 8.2 °C 1007.7 hPa Calm     45% 0 mm 0.0 W/m2
02:47 20.6 °C 8.2 °C 1007.7 hPa Calm     45% 0 mm 0.0 W/m2
02:52 20.6 °C 8.2 °C 1007.7 hPa Calm     45% 0 mm 0.0 W/m2
02:57 20.4 °C 8.7 °C 1007.3 hPa Calm     47% 0 mm 0.0 W/m2
03:03 20.1 °C 8.4 °C 1007.3 hPa Calm     47% 0 mm 0.0 W/m2
03:08 20.1 °C 8.1 °C 1007.3 hPa Calm     46% 0 mm 0.0 W/m2
03:13 20.2 °C 8.5 °C 1007.3 hPa Calm     47% 0 mm 0.0 W/m2
03:18 19.9 °C 8.6 °C 1007.3 hPa Calm     48% 0 mm 0.0 W/m2
03:28 19.6 °C 8.6 °C 1007.7 hPa Calm     49% 0 mm 0.0 W/m2
03:38 19.4 °C 8.4 °C 1007.3 hPa Calm     49% 0 mm 0.0 W/m2
03:43 19.3 °C 8.3 °C 1007.3 hPa Calm     49% 0 mm 0.0 W/m2
03:47 19.2 °C 8.5 °C 1007.3 hPa Calm     50% 0 mm 0.0 W/m2
04:39 18.3 °C 8.6 °C 1007.3 hPa Calm     53% 0 mm 0.0 W/m2
04:46 18.2 °C 8.5 °C 1007.3 hPa Calm     53% 0 mm 0.0 W/m2
06:29 17.9 °C 8.2 °C 1008 hPa Calm     53% 0 mm 11.0 W/m2
06:46 17.9 °C 8.5 °C 1008.4 hPa Calm     54% 0 mm 25.0 W/m2
06:49 18.1 °C 8.4 °C 1008.4 hPa Calm     53% 0 mm 37.0 W/m2
06:54 18.3 °C 8.6 °C 1008.4 hPa Calm     53% 0 mm 51.0 W/m2
07:15 19.4 °C 8.4 °C 1008.4 hPa Calm     49% 0 mm 127.0 W/m2
07:25 19.8 °C 8.2 °C 1008.4 hPa Calm     47% 0 mm 171.0 W/m2
07:47 20.4 °C 8.4 °C 1008.4 hPa Calm     46% 0 mm 243.0 W/m2
07:56 20.9 °C 8.5 °C 1008.4 hPa Calm     45% 0 mm 299.0 W/m2
08:11 21.4 °C 8.3 °C 1008.4 hPa Calm     43% 0 mm 353.0 W/m2
08:22 21.6 °C 8.5 °C 1008.7 hPa Calm     43% 0 mm 394.0 W/m2
08:37 22 °C 8.1 °C 1008.4 hPa Calm     41% 0 mm 445.0 W/m2
08:47 22.3 °C 8.4 °C 1008.4 hPa Calm     41% 0 mm 485.0 W/m2
08:52 22.5 °C 8.2 °C 1008.4 hPa Calm     40% 0 mm 503.0 W/m2
09:02 22.9 °C 7.8 °C 1008.4 hPa Calm     38% 0 mm 536.0 W/m2
09:14 23.4 °C 7.5 °C 1008.4 hPa Calm     36% 0 mm 570.0 W/m2
15:56 34.2 °C 6.5 °C 1004.6 hPa SSW 24.1 km/h 35.4 km/h 18% 0 mm 726.0 W/m2
16:05 33.4 °C 5.8 °C 1004.6 hPa SW 28.8 km/h 33.8 km/h 18% 0 mm 698.0 W/m2
16:20 32.5 °C 6.6 °C 1004.6 hPa South 30.6 km/h 38.6 km/h 20% 0 mm 656.0 W/m2
16:25 32.2 °C 6.4 °C 1005 hPa South 27.4 km/h 43.5 km/h 20% 0 mm 636.0 W/m2
16:30 31.7 °C 6.7 °C 1005 hPa SSW 28.8 km/h 40.2 km/h 21% 0 mm 624.0 W/m2
16:42 31.3 °C 7 °C 1005 hPa SSW 30.6 km/h 35.4 km/h 22% 0 mm 589.0 W/m2
16:50 31.2 °C 7 °C 1005 hPa SSW 24.1 km/h 38.6 km/h 22% 0 mm 554.0 W/m2
17:05 30.7 °C 7.2 °C 1005.3 hPa SW 30.6 km/h 38.6 km/h 23% 0 mm 506.0 W/m2
17:10 30.6 °C 7.1 °C 1005.3 hPa SSW 35.2 km/h 40.2 km/h 23% 0 mm 490.0 W/m2
17:15 30 °C 7.2 °C 1005.3 hPa SW 33.8 km/h 45.1 km/h 24% 0 mm 471.0 W/m2
17:19 30.1 °C 6.7 °C 1005.3 hPa South 30.6 km/h 38.6 km/h 23% 0 mm 452.0 W/m2
17:24 30 °C 6.6 °C 1005.3 hPa South 28.8 km/h 38.6 km/h 23% 0 mm 434.0 W/m2
18:40 28.7 °C 7.9 °C 1006.3 hPa SW 25.9 km/h 33.8 km/h 27% 0 mm 165.0 W/m2
19:14 26.2 °C 8.7 °C 1007.3 hPa SSW 38.5 km/h 41.8 km/h 33% 0 mm 26.0 W/m2
19:29 25.5 °C 8 °C 1007.7 hPa SSW 22.7 km/h 32.2 km/h 33% 0 mm 12.0 W/m2
19:44 24.3 °C 7.4 °C 1008 hPa SSW 20.9 km/h 32.2 km/h 34% 0 mm 0.0 W/m2
20:06 23.9 °C 7.9 °C 1008.4 hPa SSW 24.1 km/h 27.4 km/h 36% 0 mm 0.0 W/m2
20:22 23.5 °C 6.7 °C 1008.7 hPa SSW 27.4 km/h 33.8 km/h 34% 0 mm 0.0 W/m2
20:36 23.2 °C 6.9 °C 1009 hPa SSW 25.9 km/h 29 km/h 35% 0 mm 0.0 W/m2
20:52 23 °C 6.7 °C 1009 hPa SSW 28.8 km/h 33.8 km/h 35% 0 mm 0.0 W/m2
21:07 22.7 °C 6.4 °C 1009.7 hPa South 20.9 km/h 27.4 km/h 35% 0 mm 0.0 W/m2
21:20 22.2 °C 7.2 °C 1009.7 hPa SSW 27.4 km/h 38.6 km/h 38% 0 mm 0.0 W/m2
Canyon Roadhouse, Fishriver Canyon, Namibia
Compliments of Weather Underground - 2 mb